sensor_id;sensor_type;location;lat;lon;timestamp;temperature;humidity
52439;DHT22;73188;52.948;6.012;2024-03-23T00:57:17;4.60;78.60
52439;DHT22;73188;52.948;6.012;2024-03-23T01:07:43;4.40;78.70
52439;DHT22;73188;52.948;6.012;2024-03-23T01:18:08;4.30;78.80
52439;DHT22;73188;52.948;6.012;2024-03-23T01:28:34;4.30;79.20
52439;DHT22;73188;52.948;6.012;2024-03-23T01:39:00;4.40;79.40
52439;DHT22;73188;52.948;6.012;2024-03-23T01:49:26;4.50;79.20
52439;DHT22;73188;52.948;6.012;2024-03-23T01:59:51;4.40;79.20
52439;DHT22;73188;52.948;6.012;2024-03-23T02:10:18;4.50;79.10
52439;DHT22;73188;52.948;6.012;2024-03-23T02:20:44;4.40;79.00
52439;DHT22;73188;52.948;6.012;2024-03-23T02:31:10;4.30;79.00
52439;DHT22;73188;52.948;6.012;2024-03-23T02:41:36;4.20;79.20
52439;DHT22;73188;52.948;6.012;2024-03-23T02:52:02;4.20;79.10
52439;DHT22;73188;52.948;6.012;2024-03-23T03:02:28;4.10;78.90
52439;DHT22;73188;52.948;6.012;2024-03-23T03:12:54;4.00;79.00
52439;DHT22;73188;52.948;6.012;2024-03-23T03:23:20;3.90;78.80
52439;DHT22;73188;52.948;6.012;2024-03-23T03:33:46;3.90;79.00
52439;DHT22;73188;52.948;6.012;2024-03-23T03:44:12;3.90;78.70
52439;DHT22;73188;52.948;6.012;2024-03-23T03:54:37;3.90;78.90
52439;DHT22;73188;52.948;6.012;2024-03-23T04:05:03;3.80;78.80
52439;DHT22;73188;52.948;6.012;2024-03-23T04:15:29;3.70;78.70
52439;DHT22;73188;52.948;6.012;2024-03-23T04:25:55;3.60;78.60
52439;DHT22;73188;52.948;6.012;2024-03-23T04:36:21;3.60;78.70
52439;DHT22;73188;52.948;6.012;2024-03-23T04:46:47;3.60;78.90
52439;DHT22;73188;52.948;6.012;2024-03-23T04:57:12;3.60;78.70
52439;DHT22;73188;52.948;6.012;2024-03-23T05:07:38;3.50;78.60
52439;DHT22;73188;52.948;6.012;2024-03-23T05:18:05;3.30;78.40
52439;DHT22;73188;52.948;6.012;2024-03-23T05:28:31;3.50;79.00
52439;DHT22;73188;52.948;6.012;2024-03-23T05:38:56;3.90;79.10
52439;DHT22;73188;52.948;6.012;2024-03-23T05:49:22;4.10;79.00
52439;DHT22;73188;52.948;6.012;2024-03-23T05:59:48;4.60;77.50
52439;DHT22;73188;52.948;6.012;2024-03-23T06:10:14;4.40;78.00
52439;DHT22;73188;52.948;6.012;2024-03-23T06:20:40;4.40;77.20
52439;DHT22;73188;52.948;6.012;2024-03-23T06:31:09;4.40;77.50
52439;DHT22;73188;52.948;6.012;2024-03-23T06:41:35;4.30;77.50
52439;DHT22;73188;52.948;6.012;2024-03-23T06:52:01;5.40;79.20
52439;DHT22;73188;52.948;6.012;2024-03-23T07:02:28;6.30;75.80
52439;DHT22;73188;52.948;6.012;2024-03-23T07:12:53;5.80;76.10
52439;DHT22;73188;52.948;6.012;2024-03-23T07:23:19;5.60;75.70
52439;DHT22;73188;52.948;6.012;2024-03-23T07:33:46;5.20;75.60
52439;DHT22;73188;52.948;6.012;2024-03-23T07:44:13;5.00;74.70
52439;DHT22;73188;52.948;6.012;2024-03-23T07:54:39;5.00;75.00
52439;DHT22;73188;52.948;6.012;2024-03-23T08:05:05;5.00;75.40
52439;DHT22;73188;52.948;6.012;2024-03-23T08:15:31;5.30;75.90
52439;DHT22;73188;52.948;6.012;2024-03-23T08:26:00;8.50;71.10
52439;DHT22;73188;52.948;6.012;2024-03-23T08:36:27;12.20;60.50
52439;DHT22;73188;52.948;6.012;2024-03-23T08:46:56;11.30;62.50
52439;DHT22;73188;52.948;6.012;2024-03-23T08:57:23;14.20;54.80
52439;DHT22;73188;52.948;6.012;2024-03-23T09:07:48;13.50;55.70
52439;DHT22;73188;52.948;6.012;2024-03-23T09:18:14;14.70;52.20
52439;DHT22;73188;52.948;6.012;2024-03-23T09:28:40;11.50;53.70
52439;DHT22;73188;52.948;6.012;2024-03-23T09:39:07;11.50;57.40
52439;DHT22;73188;52.948;6.012;2024-03-23T09:49:34;13.30;54.80
52439;DHT22;73188;52.948;6.012;2024-03-23T10:00:02;13.40;55.90
52439;DHT22;73188;52.948;6.012;2024-03-23T10:10:28;11.10;57.90
52439;DHT22;73188;52.948;6.012;2024-03-23T10:31:39;5.10;70.50
52439;DHT22;73188;52.948;6.012;2024-03-23T10:42:09;5.80;69.90
52439;DHT22;73188;52.948;6.012;2024-03-23T10:52:36;9.50;61.70
52439;DHT22;73188;52.948;6.012;2024-03-23T11:03:38;8.00;63.70
52439;DHT22;73188;52.948;6.012;2024-03-23T11:14:22;10.00;61.90
52439;DHT22;73188;52.948;6.012;2024-03-23T11:24:52;13.60;55.60
52439;DHT22;73188;52.948;6.012;2024-03-23T11:35:31;10.80;56.90
52439;DHT22;73188;52.948;6.012;2024-03-23T11:46:01;8.40;64.40
52439;DHT22;73188;52.948;6.012;2024-03-23T11:56:29;7.30;68.40
52439;DHT22;73188;52.948;6.012;2024-03-23T12:17:42;10.40;62.80
52439;DHT22;73188;52.948;6.012;2024-03-23T12:28:08;12.20;61.70
52439;DHT22;73188;52.948;6.012;2024-03-23T12:38:34;12.00;59.80
52439;DHT22;73188;52.948;6.012;2024-03-23T12:49:00;13.00;56.80
52439;DHT22;73188;52.948;6.012;2024-03-23T12:59:28;13.30;58.80
52439;DHT22;73188;52.948;6.012;2024-03-23T13:09:53;11.20;55.50
52439;DHT22;73188;52.948;6.012;2024-03-23T13:20:21;10.70;59.30
52439;DHT22;73188;52.948;6.012;2024-03-23T13:30:54;10.20;60.40
52439;DHT22;73188;52.948;6.012;2024-03-23T13:41:21;11.60;59.60
52439;DHT22;73188;52.948;6.012;2024-03-23T13:51:47;10.30;55.50
52439;DHT22;73188;52.948;6.012;2024-03-23T14:02:14;11.50;55.30
52439;DHT22;73188;52.948;6.012;2024-03-23T14:12:40;11.80;55.10
52439;DHT22;73188;52.948;6.012;2024-03-23T14:23:06;8.60;59.70
52439;DHT22;73188;52.948;6.012;2024-03-23T14:33:32;10.70;57.30
52439;DHT22;73188;52.948;6.012;2024-03-23T14:43:59;10.60;56.30
52439;DHT22;73188;52.948;6.012;2024-03-23T14:54:25;10.80;57.60
52439;DHT22;73188;52.948;6.012;2024-03-23T15:04:51;8.90;58.10
52439;DHT22;73188;52.948;6.012;2024-03-23T15:15:17;7.60;65.00
52439;DHT22;73188;52.948;6.012;2024-03-23T15:25:43;8.40;63.00
52439;DHT22;73188;52.948;6.012;2024-03-23T15:36:08;7.90;62.10
52439;DHT22;73188;52.948;6.012;2024-03-23T15:46:35;7.90;64.30
52439;DHT22;73188;52.948;6.012;2024-03-23T15:57:01;7.80;63.80
52439;DHT22;73188;52.948;6.012;2024-03-23T16:07:27;7.70;62.80
52439;DHT22;73188;52.948;6.012;2024-03-23T16:17:53;7.00;62.90
52439;DHT22;73188;52.948;6.012;2024-03-23T16:28:19;7.00;65.00
52439;DHT22;73188;52.948;6.012;2024-03-23T16:38:44;6.90;68.90
52439;DHT22;73188;52.948;6.012;2024-03-23T16:49:11;6.40;68.50
52439;DHT22;73188;52.948;6.012;2024-03-23T16:59:36;6.20;67.10
52439;DHT22;73188;52.948;6.012;2024-03-23T17:10:02;6.40;65.80
52439;DHT22;73188;52.948;6.012;2024-03-23T17:20:28;5.80;68.60
52439;DHT22;73188;52.948;6.012;2024-03-23T17:30:54;5.80;69.40
52439;DHT22;73188;52.948;6.012;2024-03-23T17:41:20;5.70;70.10
52439;DHT22;73188;52.948;6.012;2024-03-23T17:51:47;5.50;70.30
52439;DHT22;73188;52.948;6.012;2024-03-23T18:02:13;5.40;69.80
52439;DHT22;73188;52.948;6.012;2024-03-23T18:12:40;5.30;69.10
52439;DHT22;73188;52.948;6.012;2024-03-23T18:23:06;5.10;68.30
52439;DHT22;73188;52.948;6.012;2024-03-23T18:33:37;5.30;68.40
52439;DHT22;73188;52.948;6.012;2024-03-23T18:44:05;4.90;70.70
52439;DHT22;73188;52.948;6.012;2024-03-23T18:54:31;4.40;72.90
52439;DHT22;73188;52.948;6.012;2024-03-23T19:04:58;4.40;73.20
52439;DHT22;73188;52.948;6.012;2024-03-23T19:15:24;4.60;72.50
52439;DHT22;73188;52.948;6.012;2024-03-23T19:25:53;4.70;72.60
52439;DHT22;73188;52.948;6.012;2024-03-23T19:36:22;4.80;72.50
52439;DHT22;73188;52.948;6.012;2024-03-23T19:46:48;5.00;72.70
52439;DHT22;73188;52.948;6.012;2024-03-23T19:57:14;4.90;72.90
52439;DHT22;73188;52.948;6.012;2024-03-23T20:07:39;4.70;73.30
52439;DHT22;73188;52.948;6.012;2024-03-23T20:18:05;4.60;73.50
52439;DHT22;73188;52.948;6.012;2024-03-23T20:28:31;4.50;73.60
52439;DHT22;73188;52.948;6.012;2024-03-23T20:38:57;4.40;73.80
52439;DHT22;73188;52.948;6.012;2024-03-23T20:49:22;4.50;73.40
52439;DHT22;73188;52.948;6.012;2024-03-23T20:59:48;4.50;73.70
52439;DHT22;73188;52.948;6.012;2024-03-23T21:10:14;4.60;74.20
52439;DHT22;73188;52.948;6.012;2024-03-23T21:20:40;4.80;74.20
52439;DHT22;73188;52.948;6.012;2024-03-23T21:31:06;5.00;74.50
52439;DHT22;73188;52.948;6.012;2024-03-23T21:41:32;5.00;74.70
52439;DHT22;73188;52.948;6.012;2024-03-23T21:52:01;5.10;74.60
52439;DHT22;73188;52.948;6.012;2024-03-23T22:02:29;5.20;74.70
52439;DHT22;73188;52.948;6.012;2024-03-23T22:12:55;5.00;74.70
52439;DHT22;73188;52.948;6.012;2024-03-23T22:23:20;5.00;75.30
52439;DHT22;73188;52.948;6.012;2024-03-23T22:33:46;5.10;75.40
52439;DHT22;73188;52.948;6.012;2024-03-23T22:44:12;5.20;76.10
52439;DHT22;73188;52.948;6.012;2024-03-23T22:54:40;5.00;77.70
52439;DHT22;73188;52.948;6.012;2024-03-23T23:05:06;4.70;77.80
52439;DHT22;73188;52.948;6.012;2024-03-23T23:15:32;4.70;77.90
52439;DHT22;73188;52.948;6.012;2024-03-23T23:25:58;4.70;78.20
52439;DHT22;73188;52.948;6.012;2024-03-23T23:36:24;4.90;78.20
52439;DHT22;73188;52.948;6.012;2024-03-23T23:46:50;5.00;77.90
52439;DHT22;73188;52.948;6.012;2024-03-23T23:57:16;5.00;78.20
